sensor_id;sensor_type;location;lat;lon;timestamp;P1;durP1;ratioP1;P2;durP2;ratioP2
68072;SDS011;54862;51.502;7.446;2023-03-04T00:00:19;17.15;;;5.80;;
68072;SDS011;54862;51.502;7.446;2023-03-04T00:02:45;15.77;;;6.28;;
68072;SDS011;54862;51.502;7.446;2023-03-04T00:05:11;12.23;;;5.15;;
68072;SDS011;54862;51.502;7.446;2023-03-04T00:07:37;13.07;;;5.13;;
68072;SDS011;54862;51.502;7.446;2023-03-04T00:10:03;16.35;;;5.97;;
68072;SDS011;54862;51.502;7.446;2023-03-04T00:12:29;13.73;;;5.82;;
68072;SDS011;54862;51.502;7.446;2023-03-04T00:14:55;13.52;;;5.53;;
68072;SDS011;54862;51.502;7.446;2023-03-04T00:17:21;14.18;;;5.57;;
68072;SDS011;54862;51.502;7.446;2023-03-04T00:19:48;13.35;;;5.65;;
68072;SDS011;54862;51.502;7.446;2023-03-04T00:22:14;12.98;;;5.97;;
68072;SDS011;54862;51.502;7.446;2023-03-04T00:24:40;18.90;;;5.53;;
68072;SDS011;54862;51.502;7.446;2023-03-04T00:27:06;12.25;;;4.95;;
68072;SDS011;54862;51.502;7.446;2023-03-04T00:29:32;16.88;;;5.05;;
68072;SDS011;54862;51.502;7.446;2023-03-04T00:31:57;13.60;;;5.90;;
68072;SDS011;54862;51.502;7.446;2023-03-04T00:34:23;13.63;;;5.38;;
68072;SDS011;54862;51.502;7.446;2023-03-04T00:36:49;17.85;;;4.78;;
68072;SDS011;54862;51.502;7.446;2023-03-04T00:39:15;13.35;;;5.32;;
68072;SDS011;54862;51.502;7.446;2023-03-04T00:41:41;13.07;;;5.10;;
68072;SDS011;54862;51.502;7.446;2023-03-04T00:44:07;11.60;;;5.22;;
68072;SDS011;54862;51.502;7.446;2023-03-04T00:46:33;14.88;;;5.05;;
68072;SDS011;54862;51.502;7.446;2023-03-04T00:48:59;15.13;;;4.75;;
68072;SDS011;54862;51.502;7.446;2023-03-04T00:51:25;16.30;;;4.43;;
68072;SDS011;54862;51.502;7.446;2023-03-04T00:53:51;12.88;;;4.60;;
68072;SDS011;54862;51.502;7.446;2023-03-04T00:56:17;15.32;;;4.75;;
68072;SDS011;54862;51.502;7.446;2023-03-04T00:58:43;10.38;;;4.25;;
68072;SDS011;54862;51.502;7.446;2023-03-04T01:01:09;15.10;;;4.07;;
68072;SDS011;54862;51.502;7.446;2023-03-04T01:03:35;16.83;;;4.90;;
68072;SDS011;54862;51.502;7.446;2023-03-04T01:06:01;16.77;;;3.72;;
68072;SDS011;54862;51.502;7.446;2023-03-04T01:08:27;13.25;;;4.25;;
68072;SDS011;54862;51.502;7.446;2023-03-04T01:10:53;11.20;;;3.88;;
68072;SDS011;54862;51.502;7.446;2023-03-04T01:13:19;11.48;;;3.42;;
68072;SDS011;54862;51.502;7.446;2023-03-04T01:15:45;19.45;;;3.90;;
68072;SDS011;54862;51.502;7.446;2023-03-04T01:18:11;15.75;;;4.50;;
68072;SDS011;54862;51.502;7.446;2023-03-04T01:20:37;15.27;;;3.95;;
68072;SDS011;54862;51.502;7.446;2023-03-04T01:23:03;15.80;;;4.13;;
68072;SDS011;54862;51.502;7.446;2023-03-04T01:25:29;13.38;;;3.92;;
68072;SDS011;54862;51.502;7.446;2023-03-04T01:27:55;15.60;;;3.47;;
68072;SDS011;54862;51.502;7.446;2023-03-04T01:30:21;22.65;;;4.43;;
68072;SDS011;54862;51.502;7.446;2023-03-04T01:32:47;12.73;;;3.58;;
68072;SDS011;54862;51.502;7.446;2023-03-04T01:35:13;14.88;;;3.40;;
68072;SDS011;54862;51.502;7.446;2023-03-04T01:37:39;12.85;;;3.00;;
68072;SDS011;54862;51.502;7.446;2023-03-04T01:40:05;14.82;;;3.60;;
68072;SDS011;54862;51.502;7.446;2023-03-04T01:42:32;13.80;;;3.28;;
68072;SDS011;54862;51.502;7.446;2023-03-04T01:44:59;10.90;;;3.83;;
68072;SDS011;54862;51.502;7.446;2023-03-04T01:47:27;13.73;;;3.33;;
68072;SDS011;54862;51.502;7.446;2023-03-04T01:49:53;14.27;;;4.13;;
68072;SDS011;54862;51.502;7.446;2023-03-04T01:52:20;12.30;;;3.70;;
68072;SDS011;54862;51.502;7.446;2023-03-04T01:54:46;13.90;;;3.35;;
68072;SDS011;54862;51.502;7.446;2023-03-04T01:57:20;11.68;;;3.15;;
68072;SDS011;54862;51.502;7.446;2023-03-04T01:59:46;11.65;;;3.50;;
68072;SDS011;54862;51.502;7.446;2023-03-04T02:02:12;12.50;;;3.50;;
68072;SDS011;54862;51.502;7.446;2023-03-04T02:04:39;13.98;;;3.58;;
68072;SDS011;54862;51.502;7.446;2023-03-04T02:07:06;12.00;;;3.25;;
68072;SDS011;54862;51.502;7.446;2023-03-04T02:09:32;13.77;;;3.50;;
68072;SDS011;54862;51.502;7.446;2023-03-04T02:11:59;13.75;;;3.47;;
68072;SDS011;54862;51.502;7.446;2023-03-04T02:14:25;12.00;;;4.10;;
68072;SDS011;54862;51.502;7.446;2023-03-04T02:16:51;16.63;;;4.30;;
68072;SDS011;54862;51.502;7.446;2023-03-04T02:21:55;13.20;;;4.00;;
68072;SDS011;54862;51.502;7.446;2023-03-04T02:24:35;15.65;;;3.63;;
68072;SDS011;54862;51.502;7.446;2023-03-04T02:27:03;15.57;;;3.30;;
68072;SDS011;54862;51.502;7.446;2023-03-04T02:29:30;17.60;;;3.70;;
68072;SDS011;54862;51.502;7.446;2023-03-04T02:31:56;15.70;;;3.55;;
68072;SDS011;54862;51.502;7.446;2023-03-04T02:34:32;13.60;;;3.28;;
68072;SDS011;54862;51.502;7.446;2023-03-04T02:36:58;13.40;;;3.50;;
68072;SDS011;54862;51.502;7.446;2023-03-04T02:41:57;20.48;;;4.07;;
68072;SDS011;54862;51.502;7.446;2023-03-04T02:44:30;15.40;;;2.65;;
68072;SDS011;54862;51.502;7.446;2023-03-04T02:46:57;15.63;;;3.67;;
68072;SDS011;54862;51.502;7.446;2023-03-04T02:49:25;11.15;;;3.13;;
68072;SDS011;54862;51.502;7.446;2023-03-04T02:51:51;16.90;;;4.30;;
68072;SDS011;54862;51.502;7.446;2023-03-04T02:54:19;13.07;;;3.88;;
68072;SDS011;54862;51.502;7.446;2023-03-04T02:56:46;20.35;;;3.88;;
68072;SDS011;54862;51.502;7.446;2023-03-04T02:59:12;15.57;;;3.53;;
68072;SDS011;54862;51.502;7.446;2023-03-04T03:01:38;14.23;;;2.90;;
68072;SDS011;54862;51.502;7.446;2023-03-04T03:04:04;18.88;;;4.35;;
68072;SDS011;54862;51.502;7.446;2023-03-04T03:06:30;10.02;;;2.95;;
68072;SDS011;54862;51.502;7.446;2023-03-04T03:08:56;12.50;;;3.08;;
68072;SDS011;54862;51.502;7.446;2023-03-04T03:11:22;15.75;;;3.25;;
68072;SDS011;54862;51.502;7.446;2023-03-04T03:13:48;14.55;;;3.75;;
68072;SDS011;54862;51.502;7.446;2023-03-04T03:16:14;18.10;;;3.80;;
68072;SDS011;54862;51.502;7.446;2023-03-04T03:18:39;16.27;;;4.30;;
68072;SDS011;54862;51.502;7.446;2023-03-04T03:21:06;13.30;;;3.83;;
68072;SDS011;54862;51.502;7.446;2023-03-04T03:23:32;19.15;;;3.63;;
68072;SDS011;54862;51.502;7.446;2023-03-04T03:25:58;13.77;;;3.85;;
68072;SDS011;54862;51.502;7.446;2023-03-04T03:28:24;18.17;;;3.40;;
68072;SDS011;54862;51.502;7.446;2023-03-04T03:30:50;17.83;;;3.45;;
68072;SDS011;54862;51.502;7.446;2023-03-04T03:33:16;15.25;;;3.20;;
68072;SDS011;54862;51.502;7.446;2023-03-04T03:35:42;16.80;;;4.00;;
68072;SDS011;54862;51.502;7.446;2023-03-04T03:38:08;14.63;;;3.33;;
68072;SDS011;54862;51.502;7.446;2023-03-04T03:40:34;12.02;;;3.22;;
68072;SDS011;54862;51.502;7.446;2023-03-04T03:43:00;16.67;;;3.30;;
68072;SDS011;54862;51.502;7.446;2023-03-04T03:45:26;11.32;;;3.30;;
68072;SDS011;54862;51.502;7.446;2023-03-04T03:47:52;13.45;;;3.50;;
68072;SDS011;54862;51.502;7.446;2023-03-04T03:50:18;17.73;;;3.50;;
68072;SDS011;54862;51.502;7.446;2023-03-04T03:52:44;11.02;;;3.08;;
68072;SDS011;54862;51.502;7.446;2023-03-04T03:55:10;14.20;;;2.90;;
68072;SDS011;54862;51.502;7.446;2023-03-04T03:57:36;14.85;;;2.90;;
68072;SDS011;54862;51.502;7.446;2023-03-04T04:00:03;16.55;;;4.47;;
68072;SDS011;54862;51.502;7.446;2023-03-04T04:02:29;11.23;;;3.00;;
68072;SDS011;54862;51.502;7.446;2023-03-04T04:04:55;16.23;;;3.17;;
68072;SDS011;54862;51.502;7.446;2023-03-04T04:07:21;8.18;;;3.00;;
68072;SDS011;54862;51.502;7.446;2023-03-04T04:09:47;14.73;;;3.78;;
68072;SDS011;54862;51.502;7.446;2023-03-04T04:12:13;10.70;;;3.25;;
68072;SDS011;54862;51.502;7.446;2023-03-04T04:14:40;15.05;;;2.80;;
68072;SDS011;54862;51.502;7.446;2023-03-04T04:17:06;8.63;;;3.40;;
68072;SDS011;54862;51.502;7.446;2023-03-04T04:19:32;14.25;;;2.88;;
68072;SDS011;54862;51.502;7.446;2023-03-04T04:21:58;14.82;;;3.30;;
68072;SDS011;54862;51.502;7.446;2023-03-04T04:24:24;13.50;;;2.88;;
68072;SDS011;54862;51.502;7.446;2023-03-04T04:26:50;9.70;;;2.65;;
68072;SDS011;54862;51.502;7.446;2023-03-04T04:29:17;17.27;;;3.45;;
68072;SDS011;54862;51.502;7.446;2023-03-04T04:31:43;12.35;;;2.90;;
68072;SDS011;54862;51.502;7.446;2023-03-04T04:34:09;11.48;;;3.30;;
68072;SDS011;54862;51.502;7.446;2023-03-04T04:36:35;14.85;;;3.10;;
68072;SDS011;54862;51.502;7.446;2023-03-04T04:39:01;10.02;;;2.53;;
68072;SDS011;54862;51.502;7.446;2023-03-04T04:41:28;7.70;;;3.20;;
68072;SDS011;54862;51.502;7.446;2023-03-04T04:43:55;10.68;;;3.10;;
68072;SDS011;54862;51.502;7.446;2023-03-04T04:46:22;9.65;;;2.95;;
68072;SDS011;54862;51.502;7.446;2023-03-04T04:48:48;12.52;;;3.50;;
68072;SDS011;54862;51.502;7.446;2023-03-04T04:51:14;10.60;;;2.42;;
68072;SDS011;54862;51.502;7.446;2023-03-04T04:53:40;11.27;;;3.25;;
68072;SDS011;54862;51.502;7.446;2023-03-04T04:56:11;10.07;;;2.75;;
68072;SDS011;54862;51.502;7.446;2023-03-04T04:58:37;12.57;;;3.38;;
68072;SDS011;54862;51.502;7.446;2023-03-04T05:01:03;12.88;;;2.85;;
68072;SDS011;54862;51.502;7.446;2023-03-04T05:03:30;10.07;;;2.80;;
68072;SDS011;54862;51.502;7.446;2023-03-04T05:05:56;8.23;;;2.65;;
68072;SDS011;54862;51.502;7.446;2023-03-04T05:08:22;14.30;;;3.47;;
68072;SDS011;54862;51.502;7.446;2023-03-04T05:10:48;14.15;;;2.80;;
68072;SDS011;54862;51.502;7.446;2023-03-04T05:13:14;11.98;;;2.83;;
68072;SDS011;54862;51.502;7.446;2023-03-04T05:15:40;9.18;;;2.53;;
68072;SDS011;54862;51.502;7.446;2023-03-04T05:18:06;18.73;;;3.40;;
68072;SDS011;54862;51.502;7.446;2023-03-04T05:20:32;11.90;;;2.88;;
68072;SDS011;54862;51.502;7.446;2023-03-04T05:22:58;15.25;;;3.47;;
68072;SDS011;54862;51.502;7.446;2023-03-04T05:25:24;8.45;;;3.17;;
68072;SDS011;54862;51.502;7.446;2023-03-04T05:27:50;12.27;;;2.60;;
68072;SDS011;54862;51.502;7.446;2023-03-04T05:30:16;8.07;;;2.50;;
68072;SDS011;54862;51.502;7.446;2023-03-04T05:32:42;13.50;;;3.08;;
68072;SDS011;54862;51.502;7.446;2023-03-04T05:35:08;10.02;;;2.58;;
68072;SDS011;54862;51.502;7.446;2023-03-04T05:37:34;8.02;;;2.75;;
68072;SDS011;54862;51.502;7.446;2023-03-04T05:40:00;7.95;;;2.92;;
68072;SDS011;54862;51.502;7.446;2023-03-04T05:42:26;11.10;;;2.90;;
68072;SDS011;54862;51.502;7.446;2023-03-04T05:44:52;14.55;;;3.35;;
68072;SDS011;54862;51.502;7.446;2023-03-04T05:47:18;12.77;;;3.13;;
68072;SDS011;54862;51.502;7.446;2023-03-04T05:49:44;7.78;;;2.42;;
68072;SDS011;54862;51.502;7.446;2023-03-04T05:52:10;14.60;;;3.42;;
68072;SDS011;54862;51.502;7.446;2023-03-04T05:54:36;11.70;;;2.90;;
68072;SDS011;54862;51.502;7.446;2023-03-04T05:57:02;9.80;;;2.63;;
68072;SDS011;54862;51.502;7.446;2023-03-04T05:59:28;12.05;;;3.90;;
68072;SDS011;54862;51.502;7.446;2023-03-04T06:01:54;11.60;;;2.88;;
68072;SDS011;54862;51.502;7.446;2023-03-04T06:04:20;8.00;;;3.17;;
68072;SDS011;54862;51.502;7.446;2023-03-04T06:06:46;11.90;;;2.50;;
68072;SDS011;54862;51.502;7.446;2023-03-04T06:09:13;13.73;;;2.70;;
68072;SDS011;54862;51.502;7.446;2023-03-04T06:11:39;9.75;;;2.95;;
68072;SDS011;54862;51.502;7.446;2023-03-04T06:14:05;12.60;;;2.95;;
68072;SDS011;54862;51.502;7.446;2023-03-04T06:16:31;9.95;;;2.38;;
68072;SDS011;54862;51.502;7.446;2023-03-04T06:18:57;13.35;;;3.13;;
68072;SDS011;54862;51.502;7.446;2023-03-04T06:21:23;11.57;;;2.97;;
68072;SDS011;54862;51.502;7.446;2023-03-04T06:23:49;11.23;;;2.50;;
68072;SDS011;54862;51.502;7.446;2023-03-04T06:26:15;11.75;;;2.30;;
68072;SDS011;54862;51.502;7.446;2023-03-04T06:28:41;15.68;;;2.72;;
68072;SDS011;54862;51.502;7.446;2023-03-04T06:31:08;14.65;;;2.83;;
68072;SDS011;54862;51.502;7.446;2023-03-04T06:33:33;10.13;;;2.63;;
68072;SDS011;54862;51.502;7.446;2023-03-04T06:36:00;16.05;;;2.90;;
68072;SDS011;54862;51.502;7.446;2023-03-04T06:38:26;13.93;;;3.10;;
68072;SDS011;54862;51.502;7.446;2023-03-04T06:40:52;16.02;;;2.85;;
68072;SDS011;54862;51.502;7.446;2023-03-04T06:43:18;10.15;;;2.45;;
68072;SDS011;54862;51.502;7.446;2023-03-04T06:45:45;12.40;;;2.70;;
68072;SDS011;54862;51.502;7.446;2023-03-04T06:48:11;15.55;;;3.00;;
68072;SDS011;54862;51.502;7.446;2023-03-04T06:50:38;14.32;;;2.97;;
68072;SDS011;54862;51.502;7.446;2023-03-04T06:53:04;11.07;;;2.83;;
68072;SDS011;54862;51.502;7.446;2023-03-04T06:55:30;7.88;;;2.72;;
68072;SDS011;54862;51.502;7.446;2023-03-04T06:57:56;15.52;;;2.85;;
68072;SDS011;54862;51.502;7.446;2023-03-04T07:00:22;16.08;;;3.30;;
68072;SDS011;54862;51.502;7.446;2023-03-04T07:02:48;14.05;;;3.92;;
68072;SDS011;54862;51.502;7.446;2023-03-04T07:05:14;15.10;;;3.20;;
68072;SDS011;54862;51.502;7.446;2023-03-04T07:07:40;9.27;;;3.00;;
68072;SDS011;54862;51.502;7.446;2023-03-04T07:10:07;8.63;;;2.65;;
68072;SDS011;54862;51.502;7.446;2023-03-04T07:12:34;8.48;;;2.75;;
68072;SDS011;54862;51.502;7.446;2023-03-04T07:15:00;12.60;;;3.20;;
68072;SDS011;54862;51.502;7.446;2023-03-04T07:17:26;12.38;;;2.63;;
68072;SDS011;54862;51.502;7.446;2023-03-04T07:19:52;12.52;;;2.95;;
68072;SDS011;54862;51.502;7.446;2023-03-04T07:22:18;11.98;;;3.03;;
68072;SDS011;54862;51.502;7.446;2023-03-04T07:24:44;15.25;;;3.70;;
68072;SDS011;54862;51.502;7.446;2023-03-04T07:27:10;10.05;;;2.90;;
68072;SDS011;54862;51.502;7.446;2023-03-04T07:29:35;9.93;;;2.85;;
68072;SDS011;54862;51.502;7.446;2023-03-04T07:32:05;10.82;;;3.35;;
68072;SDS011;54862;51.502;7.446;2023-03-04T07:34:31;9.13;;;2.83;;
68072;SDS011;54862;51.502;7.446;2023-03-04T07:36:57;12.90;;;2.97;;
68072;SDS011;54862;51.502;7.446;2023-03-04T07:39:23;14.88;;;3.03;;
68072;SDS011;54862;51.502;7.446;2023-03-04T07:41:49;10.48;;;2.55;;
68072;SDS011;54862;51.502;7.446;2023-03-04T07:44:15;12.10;;;3.05;;
68072;SDS011;54862;51.502;7.446;2023-03-04T07:46:41;8.32;;;2.72;;
68072;SDS011;54862;51.502;7.446;2023-03-04T07:49:07;6.75;;;2.40;;
68072;SDS011;54862;51.502;7.446;2023-03-04T07:51:33;12.52;;;3.03;;
68072;SDS011;54862;51.502;7.446;2023-03-04T07:53:59;11.00;;;3.10;;
68072;SDS011;54862;51.502;7.446;2023-03-04T07:56:27;9.25;;;3.15;;
68072;SDS011;54862;51.502;7.446;2023-03-04T07:58:53;10.88;;;3.08;;
68072;SDS011;54862;51.502;7.446;2023-03-04T08:01:21;9.98;;;2.65;;
68072;SDS011;54862;51.502;7.446;2023-03-04T08:03:48;13.70;;;3.28;;
68072;SDS011;54862;51.502;7.446;2023-03-04T08:06:15;11.80;;;3.03;;
68072;SDS011;54862;51.502;7.446;2023-03-04T08:08:41;5.97;;;2.60;;
68072;SDS011;54862;51.502;7.446;2023-03-04T08:11:09;11.00;;;3.28;;
68072;SDS011;54862;51.502;7.446;2023-03-04T08:13:35;10.70;;;3.45;;
68072;SDS011;54862;51.502;7.446;2023-03-04T08:16:01;12.20;;;2.85;;
68072;SDS011;54862;51.502;7.446;2023-03-04T08:18:27;10.30;;;3.05;;
68072;SDS011;54862;51.502;7.446;2023-03-04T08:20:53;7.53;;;2.90;;
68072;SDS011;54862;51.502;7.446;2023-03-04T08:23:19;13.60;;;3.08;;
68072;SDS011;54862;51.502;7.446;2023-03-04T08:25:45;13.02;;;3.83;;
68072;SDS011;54862;51.502;7.446;2023-03-04T08:28:11;10.55;;;2.78;;
68072;SDS011;54862;51.502;7.446;2023-03-04T08:30:38;13.73;;;2.92;;
68072;SDS011;54862;51.502;7.446;2023-03-04T08:33:05;15.63;;;3.17;;
68072;SDS011;54862;51.502;7.446;2023-03-04T08:35:31;9.68;;;2.97;;
68072;SDS011;54862;51.502;7.446;2023-03-04T08:37:57;17.10;;;3.40;;
68072;SDS011;54862;51.502;7.446;2023-03-04T08:40:23;7.78;;;2.97;;
68072;SDS011;54862;51.502;7.446;2023-03-04T08:42:51;6.68;;;2.47;;
68072;SDS011;54862;51.502;7.446;2023-03-04T08:45:17;9.07;;;2.60;;
68072;SDS011;54862;51.502;7.446;2023-03-04T08:47:43;8.73;;;2.83;;
68072;SDS011;54862;51.502;7.446;2023-03-04T08:50:09;9.05;;;2.92;;
68072;SDS011;54862;51.502;7.446;2023-03-04T08:52:35;7.20;;;2.72;;
68072;SDS011;54862;51.502;7.446;2023-03-04T08:55:02;11.85;;;3.15;;
68072;SDS011;54862;51.502;7.446;2023-03-04T08:57:28;6.60;;;2.40;;
68072;SDS011;54862;51.502;7.446;2023-03-04T08:59:54;9.43;;;2.78;;
68072;SDS011;54862;51.502;7.446;2023-03-04T09:02:20;9.65;;;3.08;;
68072;SDS011;54862;51.502;7.446;2023-03-04T09:04:46;7.25;;;2.50;;
68072;SDS011;54862;51.502;7.446;2023-03-04T09:07:12;10.25;;;3.20;;
68072;SDS011;54862;51.502;7.446;2023-03-04T09:09:38;10.32;;;3.03;;
68072;SDS011;54862;51.502;7.446;2023-03-04T09:12:04;8.73;;;2.88;;
68072;SDS011;54862;51.502;7.446;2023-03-04T09:14:30;8.65;;;3.00;;
68072;SDS011;54862;51.502;7.446;2023-03-04T09:16:59;6.75;;;2.55;;
68072;SDS011;54862;51.502;7.446;2023-03-04T09:19:25;13.80;;;3.80;;
68072;SDS011;54862;51.502;7.446;2023-03-04T09:21:52;8.27;;;3.35;;
68072;SDS011;54862;51.502;7.446;2023-03-04T09:24:19;9.73;;;3.40;;
68072;SDS011;54862;51.502;7.446;2023-03-04T09:26:48;8.50;;;2.97;;
68072;SDS011;54862;51.502;7.446;2023-03-04T09:29:15;8.85;;;3.10;;
68072;SDS011;54862;51.502;7.446;2023-03-04T09:31:41;10.40;;;2.67;;
68072;SDS011;54862;51.502;7.446;2023-03-04T09:34:07;10.50;;;2.95;;
68072;SDS011;54862;51.502;7.446;2023-03-04T09:36:33;7.55;;;2.80;;
68072;SDS011;54862;51.502;7.446;2023-03-04T09:38:59;10.95;;;2.55;;
68072;SDS011;54862;51.502;7.446;2023-03-04T09:41:34;12.45;;;3.25;;
68072;SDS011;54862;51.502;7.446;2023-03-04T09:44:02;6.90;;;2.88;;
68072;SDS011;54862;51.502;7.446;2023-03-04T09:46:33;7.10;;;2.90;;
68072;SDS011;54862;51.502;7.446;2023-03-04T09:49:00;8.32;;;2.58;;
68072;SDS011;54862;51.502;7.446;2023-03-04T09:56:43;6.72;;;2.17;;
68072;SDS011;54862;51.502;7.446;2023-03-04T10:02:06;7.60;;;2.17;;
68072;SDS011;54862;51.502;7.446;2023-03-04T10:04:43;7.20;;;2.28;;
68072;SDS011;54862;51.502;7.446;2023-03-04T10:07:13;7.90;;;2.67;;
68072;SDS011;54862;51.502;7.446;2023-03-04T10:12:27;9.38;;;3.45;;
68072;SDS011;54862;51.502;7.446;2023-03-04T10:14:59;8.90;;;3.33;;
68072;SDS011;54862;51.502;7.446;2023-03-04T10:17:36;11.27;;;4.20;;
68072;SDS011;54862;51.502;7.446;2023-03-04T10:20:09;10.52;;;3.45;;
68072;SDS011;54862;51.502;7.446;2023-03-04T10:27:54;11.27;;;3.95;;
68072;SDS011;54862;51.502;7.446;2023-03-04T10:32:50;9.95;;;3.90;;
68072;SDS011;54862;51.502;7.446;2023-03-04T10:35:22;8.88;;;4.30;;
68072;SDS011;54862;51.502;7.446;2023-03-04T10:37:51;7.38;;;2.83;;
68072;SDS011;54862;51.502;7.446;2023-03-04T10:40:18;10.45;;;3.60;;
68072;SDS011;54862;51.502;7.446;2023-03-04T10:42:45;10.88;;;3.83;;
68072;SDS011;54862;51.502;7.446;2023-03-04T10:45:20;11.13;;;3.97;;
68072;SDS011;54862;51.502;7.446;2023-03-04T10:47:53;11.32;;;4.03;;
68072;SDS011;54862;51.502;7.446;2023-03-04T10:52:46;15.48;;;4.97;;
68072;SDS011;54862;51.502;7.446;2023-03-04T10:55:19;11.65;;;4.43;;
68072;SDS011;54862;51.502;7.446;2023-03-04T10:57:50;12.40;;;4.72;;
68072;SDS011;54862;51.502;7.446;2023-03-04T11:02:44;13.30;;;4.68;;
68072;SDS011;54862;51.502;7.446;2023-03-04T11:07:43;10.20;;;4.55;;
68072;SDS011;54862;51.502;7.446;2023-03-04T11:10:13;10.68;;;4.18;;
68072;SDS011;54862;51.502;7.446;2023-03-04T11:12:41;10.65;;;4.32;;
68072;SDS011;54862;51.502;7.446;2023-03-04T11:15:16;12.38;;;4.45;;
68072;SDS011;54862;51.502;7.446;2023-03-04T11:17:43;12.43;;;4.88;;
68072;SDS011;54862;51.502;7.446;2023-03-04T11:22:36;12.07;;;5.00;;
68072;SDS011;54862;51.502;7.446;2023-03-04T11:25:04;12.93;;;4.60;;
68072;SDS011;54862;51.502;7.446;2023-03-04T11:27:41;12.70;;;4.75;;
68072;SDS011;54862;51.502;7.446;2023-03-04T11:30:15;10.73;;;4.20;;
68072;SDS011;54862;51.502;7.446;2023-03-04T11:32:44;9.20;;;4.28;;
68072;SDS011;54862;51.502;7.446;2023-03-04T11:35:17;11.35;;;4.47;;
68072;SDS011;54862;51.502;7.446;2023-03-04T11:38:01;11.48;;;4.10;;
68072;SDS011;54862;51.502;7.446;2023-03-04T11:43:15;9.63;;;3.83;;
68072;SDS011;54862;51.502;7.446;2023-03-04T11:48:12;8.98;;;3.53;;
68072;SDS011;54862;51.502;7.446;2023-03-04T11:50:48;11.13;;;4.43;;
68072;SDS011;54862;51.502;7.446;2023-03-04T11:55:45;15.43;;;4.25;;
68072;SDS011;54862;51.502;7.446;2023-03-04T12:01:02;12.35;;;4.43;;
68072;SDS011;54862;51.502;7.446;2023-03-04T12:08:52;7.80;;;2.85;;
68072;SDS011;54862;51.502;7.446;2023-03-04T12:11:27;6.45;;;2.90;;
68072;SDS011;54862;51.502;7.446;2023-03-04T12:19:11;5.82;;;2.60;;
68072;SDS011;54862;51.502;7.446;2023-03-04T12:24:53;6.53;;;2.88;;
68072;SDS011;54862;51.502;7.446;2023-03-04T12:32:46;7.10;;;2.55;;
68072;SDS011;54862;51.502;7.446;2023-03-04T12:38:06;6.00;;;2.78;;
68072;SDS011;54862;51.502;7.446;2023-03-04T12:50:48;9.20;;;3.42;;
68072;SDS011;54862;51.502;7.446;2023-03-04T12:53:32;8.13;;;3.30;;
68072;SDS011;54862;51.502;7.446;2023-03-04T12:56:00;7.47;;;2.80;;
68072;SDS011;54862;51.502;7.446;2023-03-04T12:58:27;6.10;;;3.08;;
68072;SDS011;54862;51.502;7.446;2023-03-04T13:08:23;6.72;;;3.53;;
68072;SDS011;54862;51.502;7.446;2023-03-04T13:10:51;10.00;;;3.67;;
68072;SDS011;54862;51.502;7.446;2023-03-04T13:13:34;9.00;;;4.28;;
68072;SDS011;54862;51.502;7.446;2023-03-04T13:16:00;9.93;;;4.43;;
68072;SDS011;54862;51.502;7.446;2023-03-04T13:18:31;8.90;;;4.60;;
68072;SDS011;54862;51.502;7.446;2023-03-04T13:21:19;10.13;;;4.65;;
68072;SDS011;54862;51.502;7.446;2023-03-04T13:23:47;10.40;;;4.55;;
68072;SDS011;54862;51.502;7.446;2023-03-04T13:26:23;12.05;;;5.32;;
68072;SDS011;54862;51.502;7.446;2023-03-04T13:28:53;10.65;;;5.47;;
68072;SDS011;54862;51.502;7.446;2023-03-04T13:31:24;10.65;;;5.07;;
68072;SDS011;54862;51.502;7.446;2023-03-04T13:33:52;12.73;;;4.88;;
68072;SDS011;54862;51.502;7.446;2023-03-04T13:36:29;12.70;;;4.93;;
68072;SDS011;54862;51.502;7.446;2023-03-04T13:39:20;8.90;;;3.72;;
68072;SDS011;54862;51.502;7.446;2023-03-04T13:41:50;8.65;;;3.70;;
68072;SDS011;54862;51.502;7.446;2023-03-04T13:47:17;9.05;;;4.00;;
68072;SDS011;54862;51.502;7.446;2023-03-04T13:49:44;13.77;;;4.25;;
68072;SDS011;54862;51.502;7.446;2023-03-04T13:57:46;11.52;;;3.45;;
68072;SDS011;54862;51.502;7.446;2023-03-04T14:00:13;9.02;;;3.40;;
68072;SDS011;54862;51.502;7.446;2023-03-04T14:02:39;10.18;;;3.45;;
68072;SDS011;54862;51.502;7.446;2023-03-04T14:05:05;9.63;;;4.03;;
68072;SDS011;54862;51.502;7.446;2023-03-04T14:07:32;12.05;;;4.57;;
68072;SDS011;54862;51.502;7.446;2023-03-04T14:10:06;10.82;;;4.20;;
68072;SDS011;54862;51.502;7.446;2023-03-04T14:12:34;8.65;;;3.60;;
68072;SDS011;54862;51.502;7.446;2023-03-04T14:15:03;8.75;;;3.60;;
68072;SDS011;54862;51.502;7.446;2023-03-04T14:17:33;8.32;;;3.47;;
68072;SDS011;54862;51.502;7.446;2023-03-04T14:20:03;9.50;;;3.70;;
68072;SDS011;54862;51.502;7.446;2023-03-04T14:22:31;8.25;;;3.17;;
68072;SDS011;54862;51.502;7.446;2023-03-04T14:24:58;12.40;;;3.58;;
68072;SDS011;54862;51.502;7.446;2023-03-04T14:27:25;7.30;;;2.95;;
68072;SDS011;54862;51.502;7.446;2023-03-04T14:29:56;7.47;;;2.83;;
68072;SDS011;54862;51.502;7.446;2023-03-04T14:32:22;7.35;;;3.00;;
68072;SDS011;54862;51.502;7.446;2023-03-04T14:34:49;7.90;;;2.90;;
68072;SDS011;54862;51.502;7.446;2023-03-04T14:37:18;6.35;;;2.78;;
68072;SDS011;54862;51.502;7.446;2023-03-04T14:39:45;9.40;;;3.53;;
68072;SDS011;54862;51.502;7.446;2023-03-04T14:42:13;10.45;;;3.13;;
68072;SDS011;54862;51.502;7.446;2023-03-04T14:44:40;6.55;;;2.75;;
68072;SDS011;54862;51.502;7.446;2023-03-04T14:47:13;10.18;;;3.13;;
68072;SDS011;54862;51.502;7.446;2023-03-04T14:49:41;7.25;;;2.88;;
68072;SDS011;54862;51.502;7.446;2023-03-04T14:52:25;7.68;;;3.33;;
68072;SDS011;54862;51.502;7.446;2023-03-04T14:55:02;6.95;;;2.88;;
68072;SDS011;54862;51.502;7.446;2023-03-04T14:57:30;9.75;;;3.13;;
68072;SDS011;54862;51.502;7.446;2023-03-04T15:00:12;6.13;;;2.58;;
68072;SDS011;54862;51.502;7.446;2023-03-04T15:02:39;9.80;;;3.20;;
68072;SDS011;54862;51.502;7.446;2023-03-04T15:07:55;9.68;;;3.15;;
68072;SDS011;54862;51.502;7.446;2023-03-04T15:10:27;11.50;;;2.88;;
68072;SDS011;54862;51.502;7.446;2023-03-04T15:12:54;11.60;;;2.90;;
68072;SDS011;54862;51.502;7.446;2023-03-04T15:20:42;9.18;;;2.47;;
68072;SDS011;54862;51.502;7.446;2023-03-04T15:23:16;9.25;;;2.65;;
68072;SDS011;54862;51.502;7.446;2023-03-04T15:25:42;7.35;;;2.25;;
68072;SDS011;54862;51.502;7.446;2023-03-04T15:28:14;10.02;;;2.75;;
68072;SDS011;54862;51.502;7.446;2023-03-04T15:30:41;12.32;;;2.97;;
68072;SDS011;54862;51.502;7.446;2023-03-04T15:33:11;10.25;;;2.20;;
68072;SDS011;54862;51.502;7.446;2023-03-04T15:35:37;9.50;;;2.60;;
68072;SDS011;54862;51.502;7.446;2023-03-04T15:38:06;5.25;;;2.33;;
68072;SDS011;54862;51.502;7.446;2023-03-04T15:40:37;11.95;;;2.53;;
68072;SDS011;54862;51.502;7.446;2023-03-04T15:43:04;10.98;;;2.58;;
68072;SDS011;54862;51.502;7.446;2023-03-04T15:45:31;9.25;;;2.20;;
68072;SDS011;54862;51.502;7.446;2023-03-04T15:48:02;10.40;;;2.60;;
68072;SDS011;54862;51.502;7.446;2023-03-04T15:50:32;12.25;;;2.67;;
68072;SDS011;54862;51.502;7.446;2023-03-04T15:52:59;5.63;;;2.08;;
68072;SDS011;54862;51.502;7.446;2023-03-04T15:55:26;11.65;;;3.30;;
68072;SDS011;54862;51.502;7.446;2023-03-04T15:57:53;7.93;;;2.67;;
68072;SDS011;54862;51.502;7.446;2023-03-04T16:00:20;12.10;;;2.70;;
68072;SDS011;54862;51.502;7.446;2023-03-04T16:02:46;9.63;;;2.80;;
68072;SDS011;54862;51.502;7.446;2023-03-04T16:05:12;8.07;;;2.10;;
68072;SDS011;54862;51.502;7.446;2023-03-04T16:07:40;11.25;;;2.30;;
68072;SDS011;54862;51.502;7.446;2023-03-04T16:10:07;8.65;;;2.40;;
68072;SDS011;54862;51.502;7.446;2023-03-04T16:12:33;10.68;;;2.88;;
68072;SDS011;54862;51.502;7.446;2023-03-04T16:14:59;7.20;;;2.72;;
68072;SDS011;54862;51.502;7.446;2023-03-04T16:17:25;10.15;;;2.53;;
68072;SDS011;54862;51.502;7.446;2023-03-04T16:19:51;11.75;;;2.60;;